createdAt,value
2017-11-01T00:01:57.458Z,7.23
2017-11-01T00:04:28.389Z,5.97
2017-11-01T00:06:58.538Z,7.13
2017-11-01T00:09:28.247Z,6.63
2017-11-01T00:11:58.687Z,5.73
2017-11-01T00:14:30.263Z,6.00
2017-11-01T00:17:00.674Z,5.20
2017-11-01T00:19:30.547Z,5.83
2017-11-01T00:22:01.506Z,7.30
2017-11-01T00:24:31.624Z,6.33
2017-11-01T00:27:03.380Z,4.97
2017-11-01T00:29:33.908Z,5.40
2017-11-01T00:32:08.738Z,6.30
2017-11-01T00:34:38.860Z,5.13
2017-11-01T00:37:09.536Z,6.17
2017-11-01T00:39:39.509Z,5.20
2017-11-01T00:42:11.264Z,5.17
2017-11-01T00:44:41.592Z,4.73
2017-11-01T00:47:13.311Z,6.30
2017-11-01T00:49:44.688Z,5.17
2017-11-01T00:52:15.017Z,4.00
2017-11-01T00:54:45.753Z,7.27
2017-11-01T00:57:15.670Z,3.80
2017-11-01T00:59:45.783Z,4.07
2017-11-01T01:02:16.332Z,3.50
2017-11-01T01:04:46.853Z,3.70
2017-11-01T01:07:17.577Z,5.90
2017-11-01T01:09:50.974Z,4.13
2017-11-01T01:12:21.095Z,3.37
2017-11-01T01:14:51.842Z,3.17
2017-11-01T01:17:22.768Z,2.57
2017-11-01T01:19:54.306Z,3.07
2017-11-01T01:22:27.041Z,4.93
2017-11-01T01:24:57.714Z,3.77
2017-11-01T01:27:28.622Z,3.03
2017-11-01T01:29:58.773Z,3.33
2017-11-01T01:32:30.851Z,3.10
2017-11-01T01:35:01.786Z,2.80
2017-11-01T01:37:31.704Z,4.20
2017-11-01T01:40:04.084Z,5.60
2017-11-01T01:42:34.379Z,2.70
2017-11-01T01:45:04.562Z,3.27
2017-11-01T01:47:35.801Z,2.90
2017-11-01T01:50:05.985Z,4.70
2017-11-01T01:52:37.610Z,2.87
2017-11-01T01:55:09.782Z,4.03
2017-11-01T01:57:40.436Z,3.87
2017-11-01T02:00:11.991Z,3.50
2017-11-01T02:02:42.723Z,4.13
2017-11-01T02:05:13.251Z,2.53
2017-11-01T02:07:43.165Z,2.87
2017-11-01T02:10:14.257Z,3.03
2017-11-01T02:12:44.017Z,4.17
2017-11-01T02:15:15.164Z,5.77
2017-11-01T02:17:45.076Z,2.90
2017-11-01T02:20:14.990Z,4.23
2017-11-01T02:22:44.903Z,3.63
2017-11-01T02:25:17.407Z,2.87
2017-11-01T02:27:47.955Z,5.30
2017-11-01T02:30:18.314Z,3.47
2017-11-01T02:32:50.767Z,12.60
2017-11-01T02:35:21.530Z,8.07
2017-11-01T02:37:52.175Z,5.43
2017-11-01T02:40:23.113Z,8.37
2017-11-01T02:42:53.228Z,7.70
2017-11-01T02:45:22.941Z,7.73
2017-11-01T02:47:54.081Z,9.63
2017-11-01T02:50:25.021Z,6.50
2017-11-01T02:52:55.943Z,14.00
2017-11-01T02:55:26.282Z,10.97
2017-11-01T02:57:57.636Z,8.20
2017-11-01T03:00:27.339Z,9.10
2017-11-01T03:02:58.481Z,8.33
2017-11-01T03:05:28.902Z,4.20
2017-11-01T03:07:58.722Z,7.50
2017-11-01T03:10:29.884Z,5.23
2017-11-01T03:13:00.803Z,8.53
2017-11-01T03:15:31.333Z,6.77
2017-11-01T03:18:01.247Z,8.43
2017-11-01T03:20:31.430Z,9.43
2017-11-01T03:23:01.650Z,10.43
2017-11-01T03:25:32.010Z,6.70
2017-11-01T03:28:01.927Z,8.70
2017-11-01T03:30:33.606Z,11.40
2017-11-01T03:33:04.211Z,8.47
2017-11-01T03:35:34.946Z,10.00
2017-11-01T03:38:05.086Z,12.80
2017-11-01T03:40:36.031Z,7.80
2017-11-01T03:43:06.223Z,9.83
2017-11-01T03:45:36.857Z,6.00
2017-11-01T03:48:10.046Z,14.77
2017-11-01T03:50:40.484Z,17.77
2017-11-01T03:53:11.002Z,14.87
2017-11-01T03:55:41.741Z,6.93
2017-11-01T03:58:11.854Z,14.20
2017-11-01T04:00:41.973Z,6.63
2017-11-01T04:03:12.470Z,5.97
2017-11-01T04:05:44.056Z,8.10
2017-11-01T04:08:14.694Z,11.07
2017-11-01T04:10:45.724Z,6.67
2017-11-01T04:13:17.892Z,10.10
2017-11-01T04:15:48.406Z,9.30
2017-11-01T04:18:25.505Z,8.80
2017-11-01T04:20:56.645Z,13.10
2017-11-01T04:23:27.585Z,10.03
2017-11-01T04:25:59.343Z,8.23
2017-11-01T04:28:30.286Z,5.67
2017-11-01T04:31:00.193Z,7.20
2017-11-01T04:33:31.134Z,5.17
2017-11-01T04:36:02.372Z,5.83
2017-11-01T04:38:32.599Z,6.77
2017-11-01T04:41:07.206Z,4.80
2017-11-01T04:43:38.163Z,4.90
2017-11-01T04:46:09.065Z,6.03
2017-11-01T04:48:40.385Z,4.83
2017-11-01T04:51:10.788Z,6.17
2017-11-01T04:53:41.920Z,7.80
2017-11-01T04:56:12.241Z,4.23
2017-11-01T04:58:42.871Z,4.43
2017-11-01T05:01:13.912Z,4.23
2017-11-01T05:03:45.354Z,4.57
2017-11-01T05:06:24.169Z,8.03
2017-11-01T05:08:58.809Z,11.40
2017-11-01T05:11:34.457Z,2.33
2017-11-01T05:14:04.783Z,2.90
2017-11-01T05:16:36.951Z,4.30
2017-11-01T05:19:08.741Z,4.33
2017-11-01T05:21:39.216Z,9.87
2017-11-01T05:24:10.999Z,6.73
2017-11-01T05:26:41.318Z,4.27
2017-11-01T05:29:12.255Z,4.47
2017-11-01T05:31:42.373Z,3.20
2017-11-01T05:34:13.403Z,7.80
2017-11-01T05:36:43.548Z,11.63
2017-11-01T05:39:14.974Z,3.77
2017-11-01T05:41:45.522Z,2.67
2017-11-01T05:44:16.552Z,5.07
2017-11-01T05:46:47.185Z,3.33
2017-11-01T05:49:17.306Z,3.80
2017-11-01T05:51:48.657Z,8.27
2017-11-01T05:54:18.774Z,9.63
2017-11-01T05:56:48.893Z,5.03
2017-11-01T05:59:20.036Z,10.13
2017-11-01T06:01:51.387Z,4.90
2017-11-01T06:04:22.937Z,4.13
2017-11-01T06:06:57.563Z,5.63
2017-11-01T06:09:28.432Z,5.27
2017-11-01T06:11:58.821Z,4.50
2017-11-01T06:14:30.640Z,3.60
2017-11-01T06:17:01.407Z,4.50
2017-11-01T06:19:32.211Z,4.70
2017-11-01T06:22:02.566Z,3.07
2017-11-01T06:24:34.120Z,5.00
2017-11-01T06:27:05.794Z,10.50
2017-11-01T06:29:37.091Z,5.43
2017-11-01T06:32:07.069Z,11.50
2017-11-01T06:34:37.388Z,4.20
2017-11-01T06:37:08.235Z,5.50
2017-11-01T06:39:39.397Z,7.13
2017-11-01T06:42:10.614Z,6.37
2017-11-01T06:44:41.749Z,7.10
2017-11-01T06:47:14.736Z,2.73
2017-11-01T06:49:45.289Z,14.77
2017-11-01T06:52:17.433Z,6.83
2017-11-01T06:54:49.019Z,13.03
2017-11-01T06:57:21.081Z,172.47
2017-11-01T06:59:52.836Z,58.20
2017-11-01T07:02:23.236Z,71.33
2017-11-01T07:04:57.043Z,49.70
2017-11-01T07:07:28.384Z,59.83
2017-11-01T07:09:59.907Z,60.13
2017-11-01T07:12:30.879Z,63.20
2017-11-01T07:15:02.065Z,76.20
2017-11-01T07:17:33.890Z,66.60
2017-11-01T07:20:05.453Z,78.00
2017-11-01T07:22:35.250Z,67.10
2017-11-01T07:25:06.147Z,54.13
2017-11-01T07:27:39.099Z,45.53
2017-11-01T07:30:10.527Z,54.00
2017-11-01T07:32:42.220Z,43.80
2017-11-01T07:35:12.563Z,49.87
2017-11-01T07:37:43.356Z,46.80
2017-11-01T07:40:14.014Z,46.50
2017-11-01T07:42:45.416Z,42.20
2017-11-01T07:45:16.308Z,30.97
2017-11-01T07:47:46.472Z,34.53
2017-11-01T07:50:17.618Z,30.93
2017-11-01T07:52:48.242Z,29.53
2017-11-01T07:55:18.877Z,34.57
2017-11-01T07:57:49.153Z,33.23
2017-11-01T08:00:19.445Z,26.43
2017-11-01T08:02:51.492Z,36.47
2017-11-01T08:05:21.969Z,29.97
2017-11-01T08:07:56.233Z,28.90
2017-11-01T08:10:26.965Z,22.53
2017-11-01T08:12:57.290Z,18.73
2017-11-01T08:15:28.167Z,26.40
2017-11-01T08:17:59.167Z,20.83
2017-11-01T08:20:30.921Z,22.20
2017-11-01T08:23:01.230Z,16.07
2017-11-01T08:25:32.162Z,26.40
2017-11-01T08:28:02.919Z,23.37
2017-11-01T08:30:33.447Z,19.33
2017-11-01T08:33:06.024Z,15.50
2017-11-01T08:35:36.555Z,15.20
2017-11-01T08:38:06.984Z,21.90
2017-11-01T08:40:37.201Z,12.33
2017-11-01T08:43:09.370Z,19.93
2017-11-01T08:45:39.277Z,13.60
2017-11-01T08:48:10.225Z,12.13
2017-11-01T08:50:43.617Z,15.90
2017-11-01T08:53:14.556Z,13.07
2017-11-01T08:55:48.135Z,10.47
2017-11-01T08:58:18.627Z,11.37
2017-11-01T09:00:50.157Z,16.23
2017-11-01T09:03:20.356Z,9.10
2017-11-01T09:05:51.232Z,10.10
2017-11-01T09:08:22.674Z,14.80
2017-11-01T09:10:52.850Z,10.17
2017-11-01T09:13:22.987Z,13.37
2017-11-01T09:15:54.807Z,18.50
2017-11-01T09:18:27.462Z,14.60
2017-11-01T09:20:58.259Z,14.00
2017-11-01T09:23:30.378Z,16.03
2017-11-01T09:26:01.771Z,16.20
2017-11-01T09:28:33.267Z,9.77
2017-11-01T09:31:03.212Z,11.13
2017-11-01T09:33:36.142Z,9.53
2017-11-01T09:36:07.047Z,16.50
2017-11-01T09:38:37.548Z,18.97
2017-11-01T09:41:08.392Z,11.13
2017-11-01T09:43:39.327Z,10.90
2017-11-01T09:46:09.485Z,11.13
2017-11-01T09:48:39.603Z,11.80
2017-11-01T09:51:09.523Z,19.37
2017-11-01T09:53:39.524Z,9.60
2017-11-01T09:56:09.548Z,6.13
2017-11-01T09:58:40.236Z,9.83
2017-11-01T10:01:10.408Z,10.87
2017-11-01T10:03:40.517Z,9.80
2017-11-01T10:06:11.305Z,15.80
2017-11-01T10:08:42.090Z,16.53
2017-11-01T10:11:14.965Z,11.40
2017-11-01T10:13:46.339Z,12.83
2017-11-01T10:16:16.228Z,11.23
2017-11-01T10:18:46.649Z,20.90
2017-11-01T10:21:16.843Z,11.27
2017-11-01T10:23:47.594Z,17.00
2017-11-01T10:26:17.950Z,14.73
2017-11-01T10:28:48.268Z,13.33
2017-11-01T10:31:18.240Z,14.80
2017-11-01T10:33:48.332Z,15.77
2017-11-01T10:36:19.242Z,21.83
2017-11-01T10:38:49.505Z,9.27
2017-11-01T10:41:19.609Z,10.90
2017-11-01T10:43:50.619Z,24.73
2017-11-01T10:46:21.151Z,13.53
2017-11-01T10:48:53.209Z,12.63
2017-11-01T10:51:23.641Z,14.93
2017-11-01T10:53:54.990Z,11.90
2017-11-01T10:56:25.793Z,18.50
2017-11-01T10:58:56.471Z,24.67
2017-11-01T11:01:26.984Z,15.57
2017-11-01T11:03:57.103Z,20.37
2017-11-01T11:06:27.404Z,21.00
2017-11-01T11:08:57.960Z,17.23
2017-11-01T11:11:28.257Z,21.50
2017-11-01T11:13:58.402Z,14.37
2017-11-01T11:16:29.344Z,19.13
2017-11-01T11:18:59.423Z,20.53
2017-11-01T11:21:29.382Z,15.53
2017-11-01T11:23:59.491Z,19.33
2017-11-01T11:26:29.621Z,17.63
2017-11-01T11:28:59.701Z,15.50
2017-11-01T11:31:30.052Z,24.50
2017-11-01T11:34:00.169Z,15.47
2017-11-01T11:36:30.711Z,12.43
2017-11-01T11:39:01.012Z,17.97
2017-11-01T11:41:33.200Z,21.90
2017-11-01T11:44:04.956Z,24.97
2017-11-01T11:46:35.276Z,18.23
2017-11-01T11:49:05.806Z,20.20
2017-11-01T11:51:35.919Z,19.97
2017-11-01T11:54:07.168Z,26.83
2017-11-01T11:56:38.820Z,21.10
2017-11-01T11:59:09.767Z,21.37
2017-11-01T12:01:40.035Z,24.00
2017-11-01T12:04:11.137Z,28.03
2017-11-01T12:06:44.153Z,34.97
2017-11-01T12:09:15.647Z,21.57
2017-11-01T12:11:47.835Z,21.20
2017-11-01T12:14:19.485Z,34.13
2017-11-01T12:16:50.787Z,28.47
2017-11-01T12:19:21.653Z,19.10
2017-11-01T12:21:52.694Z,19.97
2017-11-01T12:24:23.851Z,33.70
2017-11-01T12:26:53.771Z,20.53
2017-11-01T12:29:24.252Z,30.80
2017-11-01T12:31:54.413Z,38.83
2017-11-01T12:34:24.470Z,35.00
2017-11-01T12:36:56.299Z,28.43
2017-11-01T12:39:27.181Z,36.60
2017-11-01T12:41:57.368Z,34.83
2017-11-01T12:44:27.988Z,40.33
2017-11-01T12:46:59.022Z,23.83
2017-11-01T12:49:30.716Z,38.17
2017-11-01T12:52:01.821Z,41.73
2017-11-01T12:54:39.209Z,29.20
2017-11-01T12:57:09.696Z,27.73
2017-11-01T12:59:40.293Z,27.83
2017-11-01T13:05:02.773Z,26.07
2017-11-01T13:07:33.964Z,32.23
2017-11-01T13:10:04.947Z,30.93
2017-11-01T13:12:34.820Z,32.10
2017-11-01T13:15:06.579Z,44.97
2017-11-01T13:17:37.519Z,27.27
2017-11-01T13:20:07.894Z,33.27
2017-11-01T13:22:38.870Z,41.60
2017-11-01T13:25:09.259Z,31.03
2017-11-01T13:27:39.574Z,33.00
2017-11-01T13:30:10.342Z,40.73
2017-11-01T13:32:40.895Z,28.60
2017-11-01T13:35:11.754Z,33.73
2017-11-01T13:37:43.391Z,30.20
2017-11-01T13:40:13.912Z,29.90
2017-11-01T13:42:45.365Z,30.30
2017-11-01T13:45:17.025Z,24.73
2017-11-01T13:47:47.305Z,25.83
2017-11-01T13:53:14.139Z,29.83
2017-11-01T13:55:49.762Z,23.40
2017-11-01T13:58:21.191Z,31.27
2017-11-01T14:00:56.448Z,38.83
2017-11-01T14:03:27.582Z,33.57
2017-11-01T14:05:58.719Z,75.60
2017-11-01T14:08:28.856Z,50.47
2017-11-01T14:10:59.785Z,54.90
2017-11-01T14:13:29.956Z,32.67
2017-11-01T14:16:01.424Z,38.47
2017-11-01T14:18:31.994Z,36.80
2017-11-01T14:21:05.639Z,38.67
2017-11-01T14:23:35.816Z,37.77
2017-11-01T14:26:06.148Z,33.93
2017-11-01T14:28:36.253Z,36.00
2017-11-01T14:31:06.162Z,36.60
2017-11-01T14:33:36.485Z,28.63
2017-11-01T14:36:06.608Z,30.53
2017-11-01T14:38:36.875Z,24.87
2017-11-01T14:41:08.728Z,24.60
2017-11-01T14:43:39.016Z,29.90
2017-11-01T14:46:09.398Z,23.27
2017-11-01T14:48:39.491Z,30.03
2017-11-01T14:51:10.597Z,19.17
2017-11-01T14:53:40.722Z,37.60
2017-11-01T14:56:10.837Z,40.57
2017-11-01T14:58:41.367Z,20.07
2017-11-01T15:01:11.840Z,28.97
2017-11-01T15:03:43.698Z,27.20
2017-11-01T15:06:14.324Z,23.03
2017-11-01T15:08:44.661Z,22.70
2017-11-01T15:11:14.422Z,22.13
2017-11-01T15:13:45.305Z,30.50
2017-11-01T15:16:15.876Z,25.67
2017-11-01T15:18:47.119Z,37.90
2017-11-01T15:21:17.662Z,18.37
2017-11-01T15:23:48.283Z,21.07
2017-11-01T15:26:19.019Z,24.30
2017-11-01T15:28:51.485Z,15.73
2017-11-01T15:31:21.812Z,20.77
2017-11-01T15:33:53.983Z,24.73
2017-11-01T15:36:26.519Z,20.57
2017-11-01T15:38:56.947Z,17.90
2017-11-01T15:41:27.273Z,29.77
2017-11-01T15:43:57.620Z,30.87
2017-11-01T15:46:27.953Z,17.93
2017-11-01T15:48:57.858Z,19.43
2017-11-01T15:51:27.998Z,21.50
2017-11-01T15:53:58.747Z,20.57
2017-11-01T15:56:29.201Z,20.90
2017-11-01T15:58:59.379Z,23.00
2017-11-01T16:01:30.119Z,25.23
2017-11-01T16:04:00.032Z,22.70
2017-11-01T16:06:30.130Z,28.23
2017-11-01T16:09:01.086Z,30.23
2017-11-01T16:11:31.095Z,28.77
2017-11-01T16:14:01.082Z,24.73
2017-11-01T16:16:32.467Z,24.30
2017-11-01T16:19:02.795Z,26.50
2017-11-01T16:21:32.667Z,42.40
2017-11-01T16:24:02.984Z,27.60
2017-11-01T16:26:32.977Z,24.47
2017-11-01T16:29:03.607Z,25.77
2017-11-01T16:31:34.565Z,30.20
2017-11-01T16:34:04.533Z,26.57
2017-11-01T16:36:34.445Z,30.10
2017-11-01T16:39:04.978Z,26.90
2017-11-01T16:41:35.296Z,32.50
2017-11-01T16:44:05.410Z,32.80
2017-11-01T16:46:36.562Z,25.10
2017-11-01T16:49:07.497Z,21.03
2017-11-01T16:51:40.078Z,32.63
2017-11-01T16:54:12.002Z,23.33
2017-11-01T16:56:43.152Z,31.13
2017-11-01T16:59:13.709Z,48.23
2017-11-01T17:01:44.559Z,31.60
2017-11-01T17:04:16.095Z,25.23
2017-11-01T17:06:46.333Z,37.37
2017-11-01T17:09:16.610Z,32.13
2017-11-01T17:11:48.531Z,32.87
2017-11-01T17:14:19.140Z,34.03
2017-11-01T17:16:49.870Z,33.27
2017-11-01T17:19:19.989Z,31.97
2017-11-01T17:21:50.388Z,40.97
2017-11-01T17:24:20.435Z,27.80
2017-11-01T17:26:50.758Z,22.53
2017-11-01T17:29:22.425Z,38.17
2017-11-01T17:31:54.032Z,32.90
2017-11-01T17:34:24.748Z,21.07
2017-11-01T17:36:56.162Z,22.63
2017-11-01T17:39:27.491Z,29.70
2017-11-01T17:41:59.312Z,25.17
2017-11-01T17:44:29.443Z,21.47
2017-11-01T17:46:59.462Z,39.77
2017-11-01T17:49:29.816Z,31.10
2017-11-01T17:52:00.115Z,20.90
2017-11-01T17:54:30.259Z,24.27
2017-11-01T17:57:00.401Z,34.80
2017-11-01T17:59:30.901Z,18.87
2017-11-01T18:02:01.833Z,20.67
2017-11-01T18:04:32.130Z,21.97
2017-11-01T18:07:02.432Z,40.40
2017-11-01T18:09:32.474Z,29.17
2017-11-01T18:12:02.971Z,22.70
2017-11-01T18:14:33.264Z,30.50
2017-11-01T18:17:04.215Z,32.80
2017-11-01T18:19:34.730Z,30.63
2017-11-01T18:22:04.642Z,28.73
2017-11-01T18:24:34.640Z,25.67
2017-11-01T18:27:05.120Z,29.70
2017-11-01T18:29:35.836Z,126.87
2017-11-01T18:32:05.751Z,52.63
2017-11-01T18:34:36.881Z,49.73
2017-11-01T18:37:07.202Z,50.53
2017-11-01T18:39:39.729Z,48.33
2017-11-01T18:42:09.691Z,37.40
2017-11-01T18:44:39.763Z,35.97
2017-11-01T18:47:10.551Z,33.80
2017-11-01T18:49:41.492Z,32.00
2017-11-01T18:52:13.260Z,34.03
2017-11-01T18:54:44.937Z,32.43
2017-11-01T18:57:16.962Z,41.03
2017-11-01T18:59:48.296Z,28.60
2017-11-01T19:02:19.209Z,36.27
2017-11-01T19:04:49.670Z,33.70
2017-11-01T19:07:20.518Z,33.90
2017-11-01T19:09:51.040Z,25.00
2017-11-01T19:12:21.075Z,31.97
2017-11-01T19:14:51.489Z,26.13
2017-11-01T19:19:58.071Z,28.67
2017-11-01T19:22:28.603Z,21.43
2017-11-01T19:24:59.332Z,18.80
2017-11-01T19:27:30.341Z,31.80
2017-11-01T19:30:00.798Z,27.47
2017-11-01T19:32:31.184Z,23.20
2017-11-01T19:35:01.249Z,23.90
2017-11-01T19:37:31.744Z,25.90
2017-11-01T19:40:02.724Z,30.57
2017-11-01T19:42:36.082Z,21.93
2017-11-01T19:45:07.395Z,18.10
2017-11-01T19:47:37.727Z,28.40
2017-11-01T19:50:07.860Z,26.50
2017-11-01T19:52:38.013Z,25.17
2017-11-01T19:55:08.725Z,25.63
2017-11-01T19:57:38.919Z,25.00
2017-11-01T20:00:09.019Z,23.63
2017-11-01T20:02:39.153Z,25.03
2017-11-01T20:05:09.648Z,24.50
2017-11-01T20:07:40.357Z,27.77
2017-11-01T20:10:12.035Z,19.17
2017-11-01T20:12:43.481Z,30.80
2017-11-01T20:15:13.799Z,23.17
2017-11-01T20:17:44.408Z,27.43
2017-11-01T20:20:15.175Z,33.17
2017-11-01T20:22:45.161Z,23.80
2017-11-01T20:25:15.307Z,32.80
2017-11-01T20:27:45.646Z,21.70
2017-11-01T20:30:15.882Z,30.83
2017-11-01T20:32:46.067Z,32.00
2017-11-01T20:35:16.993Z,21.07
2017-11-01T20:37:47.121Z,38.33
2017-11-01T20:40:17.654Z,21.23
2017-11-01T20:42:48.000Z,30.40
2017-11-01T20:45:18.330Z,19.17
2017-11-01T20:47:48.995Z,21.93
2017-11-01T20:50:19.171Z,20.50
2017-11-01T20:52:49.407Z,33.93
2017-11-01T20:55:20.013Z,22.70
2017-11-01T20:57:51.149Z,29.13
2017-11-01T21:00:21.287Z,25.57
2017-11-01T21:02:51.403Z,30.03
2017-11-01T21:05:22.837Z,26.10
2017-11-01T21:07:53.490Z,13.93
2017-11-01T21:10:23.429Z,12.80
2017-11-01T21:12:53.400Z,19.13
2017-11-01T21:15:23.530Z,39.30
2017-11-01T21:17:54.215Z,26.80
2017-11-01T21:20:24.308Z,38.93
2017-11-01T21:22:54.696Z,38.47
2017-11-01T21:25:24.806Z,32.03
2017-11-01T21:27:56.373Z,37.20
2017-11-01T21:30:26.465Z,22.53
2017-11-01T21:32:56.572Z,23.90
2017-11-01T21:35:26.648Z,22.23
2017-11-01T21:37:57.014Z,27.70
2017-11-01T21:40:27.787Z,17.10
2017-11-01T21:42:57.945Z,16.93
2017-11-01T21:45:28.013Z,22.03
2017-11-01T21:47:58.143Z,22.60
2017-11-01T21:50:28.392Z,18.50
2017-11-01T21:52:58.383Z,23.07
2017-11-01T21:55:28.294Z,14.37
2017-11-01T21:57:59.372Z,24.97
2017-11-01T22:00:29.519Z,29.83
2017-11-01T22:02:59.761Z,19.40
2017-11-01T22:05:29.753Z,24.07
2017-11-01T22:08:00.064Z,25.53
2017-11-01T22:10:31.380Z,21.60
2017-11-01T22:13:02.819Z,20.10
2017-11-01T22:15:33.046Z,24.03
2017-11-01T22:18:05.533Z,21.50
2017-11-01T22:20:35.590Z,18.43
2017-11-01T22:23:05.825Z,27.17
2017-11-01T22:25:36.081Z,20.53
2017-11-01T22:28:06.564Z,20.57
2017-11-01T22:30:37.342Z,17.27
2017-11-01T22:33:07.454Z,16.93
2017-11-01T22:35:37.513Z,20.80
2017-11-01T22:38:07.610Z,15.53
2017-11-01T22:40:37.815Z,24.07
2017-11-01T22:43:07.823Z,22.77
2017-11-01T22:45:37.985Z,17.60
2017-11-01T22:48:08.174Z,19.00
2017-11-01T22:50:38.051Z,14.43
2017-11-01T22:53:08.023Z,20.43
2017-11-01T22:55:38.168Z,17.17
2017-11-01T22:58:08.204Z,15.63
2017-11-01T23:00:38.898Z,15.13
2017-11-01T23:03:09.500Z,20.07
2017-11-01T23:05:46.384Z,20.13
2017-11-01T23:08:16.383Z,19.07
2017-11-01T23:10:47.229Z,12.77
2017-11-01T23:13:17.307Z,22.60
2017-11-01T23:15:47.463Z,19.23
2017-11-01T23:18:17.586Z,13.00
2017-11-01T23:20:47.846Z,23.57
2017-11-01T23:23:17.828Z,16.23
2017-11-01T23:25:48.150Z,15.87
2017-11-01T23:28:18.275Z,12.00
2017-11-01T23:30:48.387Z,22.60
2017-11-01T23:33:18.638Z,17.60
2017-11-01T23:35:49.348Z,11.60
2017-11-01T23:38:20.179Z,17.53
2017-11-01T23:40:50.412Z,18.27
2017-11-01T23:43:21.235Z,13.87
2017-11-01T23:45:51.020Z,17.57
2017-11-01T23:48:20.849Z,19.37
2017-11-01T23:50:52.828Z,18.03
2017-11-01T23:53:23.458Z,11.80
2017-11-01T23:55:54.631Z,14.23
2017-11-01T23:58:25.319Z,23.33
